Milwaukee (MKE/KMKE)

Information

Location
Milwaukee, WI
Local Time
23:30 / 11:30 pm
GMT Time
05:30 / 5:30 am
Gates
Unassigned
No FAA reported delays
METAR KMKE 260452Z 27008KT 10SM FEW200 SCT250 M04/M12 A3000 RMK AO2 SLP171 T10441117
TAF KMKE 260202Z 2602/2706 28006KT P6SM SCT250 FM260900 23005KT P6SM BKN100 FM261600 20014G30KT P6SM BKN150 FM270000 24010KT P6SM FEW250
  • No charts available